sensor_id;sensor_type;location;lat;lon;timestamp;P1;durP1;ratioP1;P2;durP2;ratioP2
64667;SDS011;51077;42.716;23.344;2022-11-20T00:01:40;9.73;;;4.90;;
64667;SDS011;51077;42.716;23.344;2022-11-20T00:04:05;6.47;;;4.20;;
64667;SDS011;51077;42.716;23.344;2022-11-20T00:06:31;10.20;;;4.87;;
64667;SDS011;51077;42.716;23.344;2022-11-20T00:08:57;6.77;;;4.03;;
64667;SDS011;51077;42.716;23.344;2022-11-20T00:11:25;7.60;;;4.15;;
64667;SDS011;51077;42.716;23.344;2022-11-20T00:13:53;8.13;;;4.40;;
64667;SDS011;51077;42.716;23.344;2022-11-20T00:16:23;6.78;;;3.70;;
64667;SDS011;51077;42.716;23.344;2022-11-20T00:18:50;7.03;;;4.60;;
64667;SDS011;51077;42.716;23.344;2022-11-20T00:21:20;9.70;;;4.18;;
64667;SDS011;51077;42.716;23.344;2022-11-20T00:23:48;7.10;;;3.97;;
64667;SDS011;51077;42.716;23.344;2022-11-20T00:26:15;7.32;;;3.97;;
64667;SDS011;51077;42.716;23.344;2022-11-20T00:28:42;7.45;;;3.80;;
64667;SDS011;51077;42.716;23.344;2022-11-20T00:31:10;8.43;;;4.00;;
64667;SDS011;51077;42.716;23.344;2022-11-20T00:33:40;6.00;;;3.47;;
64667;SDS011;51077;42.716;23.344;2022-11-20T00:36:07;7.00;;;3.40;;
64667;SDS011;51077;42.716;23.344;2022-11-20T00:38:34;7.50;;;3.42;;
64667;SDS011;51077;42.716;23.344;2022-11-20T00:41:04;7.13;;;4.03;;
64667;SDS011;51077;42.716;23.344;2022-11-20T00:43:31;7.00;;;3.72;;
64667;SDS011;51077;42.716;23.344;2022-11-20T00:46:07;7.20;;;3.30;;
64667;SDS011;51077;42.716;23.344;2022-11-20T00:48:43;7.65;;;3.50;;
64667;SDS011;51077;42.716;23.344;2022-11-20T00:51:09;6.78;;;3.55;;
64667;SDS011;51077;42.716;23.344;2022-11-20T00:53:36;7.53;;;2.88;;
64667;SDS011;51077;42.716;23.344;2022-11-20T00:56:03;8.27;;;4.57;;
64667;SDS011;51077;42.716;23.344;2022-11-20T00:58:32;5.22;;;2.72;;
64667;SDS011;51077;42.716;23.344;2022-11-20T01:03:32;5.95;;;2.92;;
64667;SDS011;51077;42.716;23.344;2022-11-20T01:06:09;4.47;;;2.70;;
64667;SDS011;51077;42.716;23.344;2022-11-20T01:08:40;4.20;;;2.25;;
64667;SDS011;51077;42.716;23.344;2022-11-20T01:11:10;5.87;;;2.10;;
64667;SDS011;51077;42.716;23.344;2022-11-20T01:13:40;5.30;;;2.55;;
64667;SDS011;51077;42.716;23.344;2022-11-20T01:18:33;4.40;;;2.03;;
64667;SDS011;51077;42.716;23.344;2022-11-20T01:21:05;3.13;;;1.50;;
64667;SDS011;51077;42.716;23.344;2022-11-20T01:23:37;7.57;;;1.63;;
64667;SDS011;51077;42.716;23.344;2022-11-20T01:26:05;3.38;;;1.50;;
64667;SDS011;51077;42.716;23.344;2022-11-20T01:28:32;5.70;;;1.50;;
64667;SDS011;51077;42.716;23.344;2022-11-20T01:30:58;3.97;;;1.63;;
64667;SDS011;51077;42.716;23.344;2022-11-20T01:33:24;3.13;;;1.60;;
64667;SDS011;51077;42.716;23.344;2022-11-20T01:35:50;4.03;;;1.30;;
64667;SDS011;51077;42.716;23.344;2022-11-20T01:38:16;3.77;;;1.50;;
64667;SDS011;51077;42.716;23.344;2022-11-20T01:40:42;3.73;;;1.53;;
64667;SDS011;51077;42.716;23.344;2022-11-20T01:43:16;5.10;;;1.40;;
64667;SDS011;51077;42.716;23.344;2022-11-20T01:45:56;4.53;;;1.50;;
64667;SDS011;51077;42.716;23.344;2022-11-20T01:48:25;2.97;;;1.45;;
64667;SDS011;51077;42.716;23.344;2022-11-20T01:50:54;4.10;;;1.27;;
64667;SDS011;51077;42.716;23.344;2022-11-20T01:53:21;4.15;;;1.20;;
64667;SDS011;51077;42.716;23.344;2022-11-20T01:55:51;2.75;;;1.17;;
64667;SDS011;51077;42.716;23.344;2022-11-20T01:58:20;4.70;;;1.30;;
64667;SDS011;51077;42.716;23.344;2022-11-20T02:00:50;3.35;;;1.13;;
64667;SDS011;51077;42.716;23.344;2022-11-20T02:03:16;4.00;;;1.37;;
64667;SDS011;51077;42.716;23.344;2022-11-20T02:05:44;2.28;;;0.88;;
64667;SDS011;51077;42.716;23.344;2022-11-20T02:08:14;3.75;;;1.58;;
64667;SDS011;51077;42.716;23.344;2022-11-20T02:10:40;3.15;;;1.20;;
64667;SDS011;51077;42.716;23.344;2022-11-20T02:13:06;3.80;;;1.23;;
64667;SDS011;51077;42.716;23.344;2022-11-20T02:15:51;3.33;;;1.40;;
64667;SDS011;51077;42.716;23.344;2022-11-20T02:18:17;7.40;;;1.83;;
64667;SDS011;51077;42.716;23.344;2022-11-20T02:20:47;4.65;;;1.30;;
64667;SDS011;51077;42.716;23.344;2022-11-20T02:23:21;3.75;;;1.50;;
64667;SDS011;51077;42.716;23.344;2022-11-20T02:25:54;3.22;;;1.00;;
64667;SDS011;51077;42.716;23.344;2022-11-20T02:28:22;6.47;;;1.02;;
64667;SDS011;51077;42.716;23.344;2022-11-20T02:30:48;3.22;;;1.15;;
64667;SDS011;51077;42.716;23.344;2022-11-20T02:33:14;3.27;;;0.90;;
64667;SDS011;51077;42.716;23.344;2022-11-20T02:35:40;2.60;;;1.17;;
64667;SDS011;51077;42.716;23.344;2022-11-20T02:38:07;4.95;;;1.00;;
64667;SDS011;51077;42.716;23.344;2022-11-20T02:40:33;4.70;;;1.07;;
64667;SDS011;51077;42.716;23.344;2022-11-20T02:42:58;3.83;;;1.00;;
64667;SDS011;51077;42.716;23.344;2022-11-20T02:45:24;2.90;;;0.87;;
64667;SDS011;51077;42.716;23.344;2022-11-20T02:47:50;2.03;;;0.98;;
64667;SDS011;51077;42.716;23.344;2022-11-20T02:50:16;3.22;;;1.23;;
64667;SDS011;51077;42.716;23.344;2022-11-20T02:52:42;4.73;;;0.90;;
64667;SDS011;51077;42.716;23.344;2022-11-20T02:55:07;2.63;;;0.90;;
64667;SDS011;51077;42.716;23.344;2022-11-20T02:57:33;4.23;;;1.20;;
64667;SDS011;51077;42.716;23.344;2022-11-20T02:59:59;2.83;;;1.10;;
64667;SDS011;51077;42.716;23.344;2022-11-20T03:02:24;4.03;;;1.60;;
64667;SDS011;51077;42.716;23.344;2022-11-20T03:04:50;3.60;;;1.40;;
64667;SDS011;51077;42.716;23.344;2022-11-20T03:07:15;3.33;;;0.70;;
64667;SDS011;51077;42.716;23.344;2022-11-20T03:09:41;3.23;;;0.87;;
64667;SDS011;51077;42.716;23.344;2022-11-20T03:12:06;2.07;;;0.77;;
64667;SDS011;51077;42.716;23.344;2022-11-20T03:14:32;3.27;;;1.13;;
64667;SDS011;51077;42.716;23.344;2022-11-20T03:16:57;2.87;;;0.90;;
64667;SDS011;51077;42.716;23.344;2022-11-20T03:19:23;3.87;;;0.97;;
64667;SDS011;51077;42.716;23.344;2022-11-20T03:21:48;2.93;;;0.90;;
64667;SDS011;51077;42.716;23.344;2022-11-20T03:24:14;1.90;;;0.80;;
64667;SDS011;51077;42.716;23.344;2022-11-20T03:26:40;3.23;;;1.00;;
64667;SDS011;51077;42.716;23.344;2022-11-20T03:29:05;1.70;;;0.70;;
64667;SDS011;51077;42.716;23.344;2022-11-20T03:31:35;2.13;;;0.87;;
64667;SDS011;51077;42.716;23.344;2022-11-20T03:34:02;4.22;;;0.90;;
64667;SDS011;51077;42.716;23.344;2022-11-20T03:36:28;3.70;;;1.38;;
64667;SDS011;51077;42.716;23.344;2022-11-20T03:38:55;3.33;;;0.80;;
64667;SDS011;51077;42.716;23.344;2022-11-20T03:41:26;1.35;;;0.75;;
64667;SDS011;51077;42.716;23.344;2022-11-20T03:43:55;4.75;;;1.33;;
64667;SDS011;51077;42.716;23.344;2022-11-20T03:46:22;2.00;;;0.90;;
64667;SDS011;51077;42.716;23.344;2022-11-20T03:48:48;2.67;;;1.02;;
64667;SDS011;51077;42.716;23.344;2022-11-20T03:53:41;2.67;;;0.93;;
64667;SDS011;51077;42.716;23.344;2022-11-20T03:56:08;3.13;;;1.00;;
64667;SDS011;51077;42.716;23.344;2022-11-20T03:58:35;5.18;;;1.15;;
64667;SDS011;51077;42.716;23.344;2022-11-20T04:01:14;3.55;;;0.80;;
64667;SDS011;51077;42.716;23.344;2022-11-20T04:03:43;3.05;;;1.50;;
64667;SDS011;51077;42.716;23.344;2022-11-20T04:06:10;2.27;;;1.00;;
64667;SDS011;51077;42.716;23.344;2022-11-20T04:08:36;5.03;;;1.10;;
64667;SDS011;51077;42.716;23.344;2022-11-20T04:11:16;2.92;;;1.27;;
64667;SDS011;51077;42.716;23.344;2022-11-20T04:13:45;3.10;;;1.40;;
64667;SDS011;51077;42.716;23.344;2022-11-20T04:16:12;3.05;;;0.90;;
64667;SDS011;51077;42.716;23.344;2022-11-20T04:18:37;3.17;;;0.83;;
64667;SDS011;51077;42.716;23.344;2022-11-20T04:21:03;4.23;;;1.00;;
64667;SDS011;51077;42.716;23.344;2022-11-20T04:23:30;3.78;;;1.00;;
64667;SDS011;51077;42.716;23.344;2022-11-20T04:26:00;2.13;;;0.97;;
64667;SDS011;51077;42.716;23.344;2022-11-20T04:28:29;3.40;;;0.90;;
64667;SDS011;51077;42.716;23.344;2022-11-20T04:31:00;2.53;;;0.90;;
64667;SDS011;51077;42.716;23.344;2022-11-20T04:33:30;3.55;;;1.30;;
64667;SDS011;51077;42.716;23.344;2022-11-20T04:35:59;2.90;;;1.10;;
64667;SDS011;51077;42.716;23.344;2022-11-20T04:38:25;3.20;;;1.00;;
64667;SDS011;51077;42.716;23.344;2022-11-20T04:40:55;2.40;;;0.83;;
64667;SDS011;51077;42.716;23.344;2022-11-20T04:43:21;3.70;;;1.23;;
64667;SDS011;51077;42.716;23.344;2022-11-20T04:45:50;4.20;;;1.40;;
64667;SDS011;51077;42.716;23.344;2022-11-20T04:48:18;5.22;;;1.25;;
64667;SDS011;51077;42.716;23.344;2022-11-20T04:50:44;2.67;;;0.90;;
64667;SDS011;51077;42.716;23.344;2022-11-20T04:53:09;3.37;;;1.10;;
64667;SDS011;51077;42.716;23.344;2022-11-20T04:55:35;3.13;;;1.07;;
64667;SDS011;51077;42.716;23.344;2022-11-20T04:58:00;3.97;;;1.30;;
64667;SDS011;51077;42.716;23.344;2022-11-20T05:00:26;5.30;;;1.57;;
64667;SDS011;51077;42.716;23.344;2022-11-20T05:02:51;3.67;;;1.27;;
64667;SDS011;51077;42.716;23.344;2022-11-20T05:05:16;4.47;;;1.50;;
64667;SDS011;51077;42.716;23.344;2022-11-20T05:07:42;3.07;;;1.30;;
64667;SDS011;51077;42.716;23.344;2022-11-20T05:10:07;5.33;;;1.23;;
64667;SDS011;51077;42.716;23.344;2022-11-20T05:12:33;3.70;;;1.20;;
64667;SDS011;51077;42.716;23.344;2022-11-20T05:14:58;2.87;;;1.13;;
64667;SDS011;51077;42.716;23.344;2022-11-20T05:17:24;3.50;;;1.10;;
64667;SDS011;51077;42.716;23.344;2022-11-20T05:19:49;4.10;;;1.20;;
64667;SDS011;51077;42.716;23.344;2022-11-20T05:22:14;4.60;;;1.30;;
64667;SDS011;51077;42.716;23.344;2022-11-20T05:24:40;3.87;;;1.10;;
64667;SDS011;51077;42.716;23.344;2022-11-20T05:27:05;4.90;;;1.30;;
64667;SDS011;51077;42.716;23.344;2022-11-20T05:29:30;2.40;;;1.10;;
64667;SDS011;51077;42.716;23.344;2022-11-20T05:31:56;3.77;;;1.40;;
64667;SDS011;51077;42.716;23.344;2022-11-20T05:34:21;3.60;;;1.20;;
64667;SDS011;51077;42.716;23.344;2022-11-20T05:36:47;2.50;;;1.10;;
64667;SDS011;51077;42.716;23.344;2022-11-20T05:39:12;12.47;;;1.50;;
64667;SDS011;51077;42.716;23.344;2022-11-20T05:41:38;3.97;;;1.10;;
64667;SDS011;51077;42.716;23.344;2022-11-20T05:44:03;2.93;;;1.00;;
64667;SDS011;51077;42.716;23.344;2022-11-20T05:46:29;4.63;;;1.00;;
64667;SDS011;51077;42.716;23.344;2022-11-20T05:48:55;4.23;;;1.37;;
64667;SDS011;51077;42.716;23.344;2022-11-20T05:51:21;4.85;;;1.25;;
64667;SDS011;51077;42.716;23.344;2022-11-20T05:53:47;1.95;;;1.00;;
64667;SDS011;51077;42.716;23.344;2022-11-20T05:56:14;3.63;;;1.17;;
64667;SDS011;51077;42.716;23.344;2022-11-20T05:58:42;6.45;;;1.40;;
64667;SDS011;51077;42.716;23.344;2022-11-20T06:03:44;4.75;;;1.15;;
64667;SDS011;51077;42.716;23.344;2022-11-20T06:06:12;4.25;;;1.42;;
64667;SDS011;51077;42.716;23.344;2022-11-20T06:08:38;4.47;;;1.50;;
64667;SDS011;51077;42.716;23.344;2022-11-20T06:11:04;3.83;;;1.30;;
64667;SDS011;51077;42.716;23.344;2022-11-20T06:13:31;4.28;;;1.05;;
64667;SDS011;51077;42.716;23.344;2022-11-20T06:15:57;4.47;;;1.20;;
64667;SDS011;51077;42.716;23.344;2022-11-20T06:18:22;6.10;;;1.10;;
64667;SDS011;51077;42.716;23.344;2022-11-20T06:20:48;4.17;;;1.50;;
64667;SDS011;51077;42.716;23.344;2022-11-20T06:23:13;7.53;;;1.23;;
64667;SDS011;51077;42.716;23.344;2022-11-20T06:25:39;5.50;;;1.20;;
64667;SDS011;51077;42.716;23.344;2022-11-20T06:28:05;6.53;;;1.67;;
64667;SDS011;51077;42.716;23.344;2022-11-20T06:30:31;5.27;;;1.63;;
64667;SDS011;51077;42.716;23.344;2022-11-20T06:32:56;5.27;;;1.37;;
64667;SDS011;51077;42.716;23.344;2022-11-20T06:35:22;5.53;;;1.60;;
64667;SDS011;51077;42.716;23.344;2022-11-20T06:37:47;5.73;;;1.60;;
64667;SDS011;51077;42.716;23.344;2022-11-20T06:40:12;6.53;;;1.53;;
64667;SDS011;51077;42.716;23.344;2022-11-20T06:42:38;4.47;;;1.73;;
64667;SDS011;51077;42.716;23.344;2022-11-20T06:45:03;4.20;;;1.47;;
64667;SDS011;51077;42.716;23.344;2022-11-20T06:47:29;4.97;;;1.60;;
64667;SDS011;51077;42.716;23.344;2022-11-20T06:49:54;4.37;;;1.80;;
64667;SDS011;51077;42.716;23.344;2022-11-20T06:52:20;4.43;;;1.50;;
64667;SDS011;51077;42.716;23.344;2022-11-20T06:54:45;3.67;;;1.80;;
64667;SDS011;51077;42.716;23.344;2022-11-20T06:57:11;4.03;;;1.63;;
64667;SDS011;51077;42.716;23.344;2022-11-20T06:59:36;6.63;;;1.97;;
64667;SDS011;51077;42.716;23.344;2022-11-20T07:02:01;4.53;;;2.00;;
64667;SDS011;51077;42.716;23.344;2022-11-20T07:04:27;4.23;;;1.77;;
64667;SDS011;51077;42.716;23.344;2022-11-20T07:06:52;5.40;;;1.43;;
64667;SDS011;51077;42.716;23.344;2022-11-20T07:09:18;5.70;;;1.90;;
64667;SDS011;51077;42.716;23.344;2022-11-20T07:11:43;3.40;;;1.47;;
64667;SDS011;51077;42.716;23.344;2022-11-20T07:14:08;5.43;;;1.80;;
64667;SDS011;51077;42.716;23.344;2022-11-20T07:16:34;3.90;;;1.70;;
64667;SDS011;51077;42.716;23.344;2022-11-20T07:18:59;4.57;;;1.80;;
64667;SDS011;51077;42.716;23.344;2022-11-20T07:21:24;6.90;;;2.00;;
64667;SDS011;51077;42.716;23.344;2022-11-20T07:23:50;5.67;;;1.70;;
64667;SDS011;51077;42.716;23.344;2022-11-20T07:26:15;3.97;;;1.53;;
64667;SDS011;51077;42.716;23.344;2022-11-20T07:28:43;5.60;;;1.70;;
64667;SDS011;51077;42.716;23.344;2022-11-20T07:31:10;5.20;;;1.88;;
64667;SDS011;51077;42.716;23.344;2022-11-20T07:33:36;4.50;;;1.55;;
64667;SDS011;51077;42.716;23.344;2022-11-20T07:36:02;6.70;;;1.73;;
64667;SDS011;51077;42.716;23.344;2022-11-20T07:38:27;7.00;;;2.50;;
64667;SDS011;51077;42.716;23.344;2022-11-20T07:40:54;4.33;;;2.10;;
64667;SDS011;51077;42.716;23.344;2022-11-20T07:43:22;8.00;;;3.35;;
64667;SDS011;51077;42.716;23.344;2022-11-20T07:45:48;7.18;;;2.75;;
64667;SDS011;51077;42.716;23.344;2022-11-20T07:48:14;7.77;;;3.20;;
64667;SDS011;51077;42.716;23.344;2022-11-20T07:50:39;7.10;;;2.80;;
64667;SDS011;51077;42.716;23.344;2022-11-20T07:53:05;5.43;;;2.50;;
64667;SDS011;51077;42.716;23.344;2022-11-20T07:55:31;7.95;;;2.97;;
64667;SDS011;51077;42.716;23.344;2022-11-20T07:57:57;8.10;;;2.88;;
64667;SDS011;51077;42.716;23.344;2022-11-20T08:00:23;8.35;;;2.78;;
64667;SDS011;51077;42.716;23.344;2022-11-20T08:02:49;6.95;;;2.70;;
64667;SDS011;51077;42.716;23.344;2022-11-20T08:05:15;6.03;;;2.80;;
64667;SDS011;51077;42.716;23.344;2022-11-20T08:07:41;6.27;;;2.83;;
64667;SDS011;51077;42.716;23.344;2022-11-20T08:10:08;7.03;;;2.72;;
64667;SDS011;51077;42.716;23.344;2022-11-20T08:12:36;6.13;;;3.05;;
64667;SDS011;51077;42.716;23.344;2022-11-20T08:15:20;4.68;;;2.28;;
64667;SDS011;51077;42.716;23.344;2022-11-20T08:17:45;9.37;;;3.20;;
64667;SDS011;51077;42.716;23.344;2022-11-20T08:20:11;7.00;;;2.40;;
64667;SDS011;51077;42.716;23.344;2022-11-20T08:22:36;5.27;;;2.70;;
64667;SDS011;51077;42.716;23.344;2022-11-20T08:25:02;6.83;;;2.73;;
64667;SDS011;51077;42.716;23.344;2022-11-20T08:27:27;8.00;;;2.77;;
64667;SDS011;51077;42.716;23.344;2022-11-20T08:29:53;6.53;;;2.53;;
64667;SDS011;51077;42.716;23.344;2022-11-20T08:32:18;7.30;;;2.73;;
64667;SDS011;51077;42.716;23.344;2022-11-20T08:34:43;6.63;;;3.13;;
64667;SDS011;51077;42.716;23.344;2022-11-20T08:37:09;8.53;;;3.40;;
64667;SDS011;51077;42.716;23.344;2022-11-20T08:39:34;7.53;;;2.83;;
64667;SDS011;51077;42.716;23.344;2022-11-20T08:41:59;4.43;;;2.63;;
64667;SDS011;51077;42.716;23.344;2022-11-20T08:44:25;5.77;;;2.93;;
64667;SDS011;51077;42.716;23.344;2022-11-20T08:46:50;7.47;;;3.03;;
64667;SDS011;51077;42.716;23.344;2022-11-20T08:49:16;4.63;;;2.57;;
64667;SDS011;51077;42.716;23.344;2022-11-20T08:51:41;4.77;;;1.93;;
64667;SDS011;51077;42.716;23.344;2022-11-20T08:54:07;8.40;;;2.40;;
64667;SDS011;51077;42.716;23.344;2022-11-20T08:56:33;4.45;;;1.95;;
64667;SDS011;51077;42.716;23.344;2022-11-20T08:58:58;6.87;;;2.40;;
64667;SDS011;51077;42.716;23.344;2022-11-20T09:01:26;5.05;;;2.35;;
64667;SDS011;51077;42.716;23.344;2022-11-20T09:03:54;7.25;;;2.40;;
64667;SDS011;51077;42.716;23.344;2022-11-20T09:06:20;5.60;;;1.90;;
64667;SDS011;51077;42.716;23.344;2022-11-20T09:08:45;5.70;;;1.60;;
64667;SDS011;51077;42.716;23.344;2022-11-20T09:11:11;6.20;;;1.80;;
64667;SDS011;51077;42.716;23.344;2022-11-20T09:13:36;6.90;;;1.90;;
64667;SDS011;51077;42.716;23.344;2022-11-20T09:16:06;5.33;;;1.67;;
64667;SDS011;51077;42.716;23.344;2022-11-20T09:18:33;4.38;;;1.90;;
64667;SDS011;51077;42.716;23.344;2022-11-20T09:21:02;6.18;;;1.80;;
64667;SDS011;51077;42.716;23.344;2022-11-20T09:23:33;7.05;;;2.05;;
64667;SDS011;51077;42.716;23.344;2022-11-20T09:26:10;5.35;;;1.92;;
64667;SDS011;51077;42.716;23.344;2022-11-20T09:28:38;5.57;;;1.50;;
64667;SDS011;51077;42.716;23.344;2022-11-20T09:31:07;6.53;;;1.85;;
64667;SDS011;51077;42.716;23.344;2022-11-20T09:33:34;6.53;;;1.85;;
64667;SDS011;51077;42.716;23.344;2022-11-20T09:36:00;8.43;;;1.77;;
64667;SDS011;51077;42.716;23.344;2022-11-20T09:38:26;4.97;;;2.07;;
64667;SDS011;51077;42.716;23.344;2022-11-20T09:40:54;3.80;;;1.50;;
64667;SDS011;51077;42.716;23.344;2022-11-20T09:43:29;7.05;;;2.20;;
64667;SDS011;51077;42.716;23.344;2022-11-20T09:46:07;7.90;;;1.70;;
64667;SDS011;51077;42.716;23.344;2022-11-20T09:48:48;6.05;;;1.63;;
64667;SDS011;51077;42.716;23.344;2022-11-20T09:57:02;3.40;;;1.50;;
64667;SDS011;51077;42.716;23.344;2022-11-20T10:07:53;6.10;;;2.55;;
64667;SDS011;51077;42.716;23.344;2022-11-20T10:11:02;5.70;;;2.38;;
64667;SDS011;51077;42.716;23.344;2022-11-20T10:24:30;5.95;;;2.50;;
64667;SDS011;51077;42.716;23.344;2022-11-20T10:29:29;7.32;;;2.88;;
64667;SDS011;51077;42.716;23.344;2022-11-20T10:32:08;4.35;;;2.22;;
64667;SDS011;51077;42.716;23.344;2022-11-20T10:37:19;7.13;;;3.17;;
64667;SDS011;51077;42.716;23.344;2022-11-20T10:39:59;5.05;;;2.60;;
64667;SDS011;51077;42.716;23.344;2022-11-20T10:47:50;7.68;;;3.50;;
64667;SDS011;51077;42.716;23.344;2022-11-20T10:50:20;7.20;;;3.08;;
64667;SDS011;51077;42.716;23.344;2022-11-20T10:53:08;7.85;;;3.38;;
64667;SDS011;51077;42.716;23.344;2022-11-20T10:55:40;7.57;;;3.00;;
64667;SDS011;51077;42.716;23.344;2022-11-20T10:58:45;9.57;;;3.10;;
64667;SDS011;51077;42.716;23.344;2022-11-20T11:01:14;7.35;;;3.30;;
64667;SDS011;51077;42.716;23.344;2022-11-20T11:03:42;7.85;;;3.00;;
64667;SDS011;51077;42.716;23.344;2022-11-20T11:08:58;6.65;;;2.50;;
64667;SDS011;51077;42.716;23.344;2022-11-20T11:11:32;8.55;;;2.70;;
64667;SDS011;51077;42.716;23.344;2022-11-20T11:14:12;8.27;;;2.95;;
64667;SDS011;51077;42.716;23.344;2022-11-20T11:19:20;4.43;;;1.63;;
64667;SDS011;51077;42.716;23.344;2022-11-20T11:21:50;5.27;;;1.37;;
64667;SDS011;51077;42.716;23.344;2022-11-20T11:24:21;3.75;;;1.38;;
64667;SDS011;51077;42.716;23.344;2022-11-20T11:27:09;6.25;;;1.30;;
64667;SDS011;51077;42.716;23.344;2022-11-20T11:29:37;4.75;;;1.50;;
64667;SDS011;51077;42.716;23.344;2022-11-20T11:32:24;5.43;;;1.63;;
64667;SDS011;51077;42.716;23.344;2022-11-20T11:35:02;4.40;;;1.30;;
64667;SDS011;51077;42.716;23.344;2022-11-20T11:37:34;4.53;;;1.67;;
64667;SDS011;51077;42.716;23.344;2022-11-20T11:40:02;4.25;;;1.70;;
64667;SDS011;51077;42.716;23.344;2022-11-20T11:42:29;5.82;;;1.30;;
64667;SDS011;51077;42.716;23.344;2022-11-20T11:44:56;2.78;;;1.45;;
64667;SDS011;51077;42.716;23.344;2022-11-20T11:47:36;4.97;;;1.05;;
64667;SDS011;51077;42.716;23.344;2022-11-20T11:52:36;2.80;;;1.33;;
64667;SDS011;51077;42.716;23.344;2022-11-20T11:55:08;5.18;;;1.58;;
64667;SDS011;51077;42.716;23.344;2022-11-20T11:57:47;3.15;;;1.10;;
64667;SDS011;51077;42.716;23.344;2022-11-20T12:00:36;4.07;;;1.50;;
64667;SDS011;51077;42.716;23.344;2022-11-20T12:03:14;6.35;;;2.15;;
64667;SDS011;51077;42.716;23.344;2022-11-20T12:05:46;5.20;;;1.67;;
64667;SDS011;51077;42.716;23.344;2022-11-20T12:08:50;4.57;;;2.25;;
64667;SDS011;51077;42.716;23.344;2022-11-20T12:11:40;4.75;;;2.20;;
64667;SDS011;51077;42.716;23.344;2022-11-20T12:14:20;5.97;;;1.83;;
64667;SDS011;51077;42.716;23.344;2022-11-20T12:16:51;3.92;;;1.92;;
64667;SDS011;51077;42.716;23.344;2022-11-20T12:19:18;6.13;;;2.60;;
64667;SDS011;51077;42.716;23.344;2022-11-20T12:24:26;5.00;;;2.22;;
64667;SDS011;51077;42.716;23.344;2022-11-20T12:30:15;5.60;;;2.38;;
64667;SDS011;51077;42.716;23.344;2022-11-20T12:43:30;8.02;;;2.72;;
64667;SDS011;51077;42.716;23.344;2022-11-20T12:46:25;5.88;;;2.80;;
64667;SDS011;51077;42.716;23.344;2022-11-20T12:51:36;7.77;;;3.10;;
64667;SDS011;51077;42.716;23.344;2022-11-20T12:56:43;8.05;;;3.40;;
64667;SDS011;51077;42.716;23.344;2022-11-20T13:07:42;9.48;;;4.90;;
64667;SDS011;51077;42.716;23.344;2022-11-20T13:10:26;8.70;;;5.23;;
64667;SDS011;51077;42.716;23.344;2022-11-20T13:13:08;8.25;;;4.90;;
64667;SDS011;51077;42.716;23.344;2022-11-20T13:18:33;10.40;;;5.60;;
64667;SDS011;51077;42.716;23.344;2022-11-20T13:21:13;10.45;;;5.13;;
64667;SDS011;51077;42.716;23.344;2022-11-20T13:24:05;8.27;;;4.95;;
64667;SDS011;51077;42.716;23.344;2022-11-20T13:27:00;8.80;;;4.85;;
64667;SDS011;51077;42.716;23.344;2022-11-20T13:29:40;8.70;;;5.22;;
64667;SDS011;51077;42.716;23.344;2022-11-20T13:38:05;8.60;;;4.90;;
64667;SDS011;51077;42.716;23.344;2022-11-20T13:40:33;8.90;;;5.28;;
64667;SDS011;51077;42.716;23.344;2022-11-20T13:43:03;9.40;;;6.10;;
64667;SDS011;51077;42.716;23.344;2022-11-20T13:45:32;9.52;;;5.57;;
64667;SDS011;51077;42.716;23.344;2022-11-20T13:48:05;11.05;;;5.80;;
64667;SDS011;51077;42.716;23.344;2022-11-20T13:51:30;13.98;;;6.15;;
64667;SDS011;51077;42.716;23.344;2022-11-20T14:01:58;10.60;;;6.20;;
64667;SDS011;51077;42.716;23.344;2022-11-20T14:04:33;10.05;;;6.32;;
64667;SDS011;51077;42.716;23.344;2022-11-20T14:07:01;9.15;;;6.75;;
64667;SDS011;51077;42.716;23.344;2022-11-20T14:09:31;11.13;;;6.85;;
64667;SDS011;51077;42.716;23.344;2022-11-20T14:11:57;11.85;;;6.78;;
64667;SDS011;51077;42.716;23.344;2022-11-20T14:14:27;11.27;;;7.00;;
64667;SDS011;51077;42.716;23.344;2022-11-20T14:17:39;10.55;;;6.65;;
64667;SDS011;51077;42.716;23.344;2022-11-20T14:19:54;9.95;;;6.43;;
64667;SDS011;51077;42.716;23.344;2022-11-20T14:22:25;10.52;;;6.68;;
64667;SDS011;51077;42.716;23.344;2022-11-20T14:25:03;15.02;;;7.53;;
64667;SDS011;51077;42.716;23.344;2022-11-20T14:27:39;10.90;;;6.90;;
64667;SDS011;51077;42.716;23.344;2022-11-20T14:30:16;12.35;;;6.90;;
64667;SDS011;51077;42.716;23.344;2022-11-20T14:32:44;10.60;;;7.03;;
64667;SDS011;51077;42.716;23.344;2022-11-20T14:37:50;11.90;;;7.63;;
64667;SDS011;51077;42.716;23.344;2022-11-20T14:40:24;11.70;;;7.63;;
64667;SDS011;51077;42.716;23.344;2022-11-20T14:42:50;12.82;;;8.45;;
64667;SDS011;51077;42.716;23.344;2022-11-20T14:45:16;13.23;;;8.23;;
64667;SDS011;51077;42.716;23.344;2022-11-20T14:47:42;12.48;;;8.02;;
64667;SDS011;51077;42.716;23.344;2022-11-20T14:50:24;14.48;;;8.40;;
64667;SDS011;51077;42.716;23.344;2022-11-20T14:52:52;16.05;;;9.30;;
64667;SDS011;51077;42.716;23.344;2022-11-20T14:55:30;15.13;;;8.45;;
64667;SDS011;51077;42.716;23.344;2022-11-20T14:58:04;13.88;;;8.32;;
64667;SDS011;51077;42.716;23.344;2022-11-20T15:00:31;14.85;;;9.15;;
64667;SDS011;51077;42.716;23.344;2022-11-20T15:02:59;14.38;;;9.20;;
64667;SDS011;51077;42.716;23.344;2022-11-20T15:05:46;13.77;;;8.83;;
64667;SDS011;51077;42.716;23.344;2022-11-20T15:08:14;16.80;;;8.50;;
64667;SDS011;51077;42.716;23.344;2022-11-20T15:10:50;16.50;;;9.73;;
64667;SDS011;51077;42.716;23.344;2022-11-20T15:13:23;15.00;;;9.80;;
64667;SDS011;51077;42.716;23.344;2022-11-20T15:16:02;14.05;;;9.10;;
64667;SDS011;51077;42.716;23.344;2022-11-20T15:21:02;16.30;;;9.98;;
64667;SDS011;51077;42.716;23.344;2022-11-20T15:23:31;14.82;;;8.57;;
64667;SDS011;51077;42.716;23.344;2022-11-20T15:25:56;10.90;;;8.17;;
64667;SDS011;51077;42.716;23.344;2022-11-20T15:30:50;11.95;;;7.38;;
64667;SDS011;51077;42.716;23.344;2022-11-20T15:33:16;10.77;;;7.47;;
64667;SDS011;51077;42.716;23.344;2022-11-20T15:35:42;9.95;;;6.65;;
64667;SDS011;51077;42.716;23.344;2022-11-20T15:38:08;13.80;;;7.90;;
64667;SDS011;51077;42.716;23.344;2022-11-20T15:40:33;9.07;;;6.07;;
64667;SDS011;51077;42.716;23.344;2022-11-20T15:42:59;10.83;;;6.73;;
64667;SDS011;51077;42.716;23.344;2022-11-20T15:45:28;11.65;;;5.93;;
64667;SDS011;51077;42.716;23.344;2022-11-20T15:50:46;9.13;;;5.50;;
64667;SDS011;51077;42.716;23.344;2022-11-20T15:53:14;10.45;;;5.70;;
64667;SDS011;51077;42.716;23.344;2022-11-20T15:55:39;11.37;;;5.17;;
64667;SDS011;51077;42.716;23.344;2022-11-20T15:58:04;8.40;;;5.20;;
64667;SDS011;51077;42.716;23.344;2022-11-20T16:00:30;9.23;;;5.00;;
64667;SDS011;51077;42.716;23.344;2022-11-20T16:02:55;11.27;;;5.40;;
64667;SDS011;51077;42.716;23.344;2022-11-20T16:05:21;10.80;;;5.60;;
64667;SDS011;51077;42.716;23.344;2022-11-20T16:07:48;9.95;;;5.72;;
64667;SDS011;51077;42.716;23.344;2022-11-20T16:10:14;10.88;;;5.90;;
64667;SDS011;51077;42.716;23.344;2022-11-20T16:12:40;13.30;;;6.37;;
64667;SDS011;51077;42.716;23.344;2022-11-20T16:15:24;9.23;;;5.50;;
64667;SDS011;51077;42.716;23.344;2022-11-20T16:18:08;9.73;;;5.55;;
64667;SDS011;51077;42.716;23.344;2022-11-20T16:20:35;10.43;;;6.63;;
64667;SDS011;51077;42.716;23.344;2022-11-20T16:23:01;9.20;;;5.67;;
64667;SDS011;51077;42.716;23.344;2022-11-20T16:25:27;10.93;;;6.53;;
64667;SDS011;51077;42.716;23.344;2022-11-20T16:27:52;12.73;;;7.43;;
64667;SDS011;51077;42.716;23.344;2022-11-20T16:30:17;10.87;;;6.93;;
64667;SDS011;51077;42.716;23.344;2022-11-20T16:32:43;11.87;;;7.40;;
64667;SDS011;51077;42.716;23.344;2022-11-20T16:35:08;11.57;;;5.90;;
64667;SDS011;51077;42.716;23.344;2022-11-20T16:37:34;9.20;;;5.87;;